x

N01 - Northeast Channel (44024) Wave Buoy

12:04pm - Tue 27th Jan 2015 All times are AST. -4 hours from GMT.

  • Sig Wave height 31.2ft
  • Peak Period 16s
  • Wind
    29mph, 38mph gusts
  • Sea Temp 44°f
  • Air Temp 42°f
  • Sea Pressure 986.2mb
  • N01 - Northeast Channel
  • N01 - Northeast Channel

More Historic Weather Station data

Upgrade to MSW Pro to gain access to the past 30 days of data for over 8000 Wavebouys and Weather Stations around the globe.

Join Pro

Comparision Forecast

View Surf forecast
   
Tue 01/27 12:04pm 31ft 16s 29 38 mph 986.2mb 44f 42f
11:04am  -   -  34 43 mph 987mb 44f 42f
10:04am  -   -  34 45 mph 987.6mb 44f 41f
9:04am  -   -  36 43 mph 988.2mb 44f 41f
8:04am  -   -  45 60 mph 988.4mb - 38f
7:04am  -   -  56 74 mph 988.9mb 44f 37f
6:04am 31ft 11s 51 63 mph 990.7mb 43f 35f
5:04am 24ft 11s 47 60 mph 995.6mb 43f 35f
4:04am 28ft 11s 47 63 mph 997.2mb 43f 35f
3:04am 21ft 8s 43 56 mph 999.5mb 43f 35f
2:04am 19.5ft 8s 47 58 mph 1001.9mb 42f 34f
1:04am 15ft 8s 47 56 mph 1004.1mb 42f 34f
12:04am 12ft 6s 43 49 mph - 42f 33f
Mon 01/26 11:04pm 11.5ft 6s 38 45 mph 1011.7mb 42f 34f
10:04pm 10ft 5s 36 45 mph 1013.6mb 43f 34f
9:04pm 9.5ft 11s 31 40 mph 1016.1mb 43f 33f
8:04pm 8ft 5s 29 34 mph 1017.4mb 43f 33f
7:04pm 7.5ft 11s 27 31 mph 1018mb 43f 32f
6:04pm 7ft 11s 25 29 mph 1017.9mb 43f 31f
5:04pm 7.5ft 11s 18 22 mph 1018.3mb 43f 30f
4:04pm 7.5ft 8s 18 22 mph 1018.3mb 42f 29f
3:04pm 8ft 11s 13 18 mph 1018.8mb 42f 28f
2:04pm 8.5ft 11s 16 20 mph 1018.3mb 42f 28f
1:04pm 9.5ft 11s 13 20 mph 1019.3mb 42f 28f
12:04pm 10ft 8s 13 18 mph 1020mb 42f 28f
11:04am 9ft 8s 11 16 mph 1020.5mb 42f 28f
10:04am 11.5ft 11s 9 13 mph 1020mb 42f 29f
9:04am 10.5ft 8s 9 13 mph 1019.4mb 42f 28f
8:04am 13ft 11s 9 13 mph 1018.4mb 42f 28f
7:04am 13.5ft 8s 16 20 mph 1017.3mb 43f 29f
6:04am  -   -  16 22 mph 1016.6mb - 29f
5:04am 14ft 8s 18 22 mph 1015.8mb 43f 29f
4:04am 13.5ft 11s 20 27 mph 1015.4mb 43f 29f
3:04am 14.5ft 8s 20 25 mph 1014.1mb 44f 30f
2:04am 18ft 11s 22 29 mph 1012.3mb 44f 31f
1:04am 15.5ft 11s 27 31 mph 1010.6mb 43f 33f
12:04am 14ft 11s 27 34 mph 1010.3mb 43f 34f
Sun 01/25 11:04pm  -   -  27 34 mph 1009mb - 35f
10:04pm 16.5ft 11s 27 34 mph 1008.2mb 43f 36f
9:04pm 16.5ft 11s 29 36 mph 1007.3mb 43f 37f
8:04pm 21.5ft 16s 25 31 mph 1005.6mb 43f 37f
7:04pm 14ft 8s 27 34 mph 1004.1mb 43f 39f
6:04pm 15ft 8s 25 29 mph 1002mb 43f 39f
4:04pm  -   -  27 31 mph 999.4mb 44f 42f
3:04pm 17.5ft 11s  -  mph - 44f -
1:04pm 21.5ft 16s 27 31 mph 997.6mb 43f 42f
12:04pm  -   -  25 29 mph 997.6mb 43f 41f
11:04am  -   -  25 31 mph 997mb 43f 41f
10:04am  -   -  25 31 mph 996.1mb - 41f
9:04am 14ft 8s 27 31 mph 995.2mb 43f 41f
8:04am 15.5ft 8s 27 31 mph 994.4mb 43f 41f
7:04am  -   -  27 31 mph 993.1mb 43f 41f
5:04am 26ft 8s 29 36 mph 989.8mb 42f 40f
4:04am  -   -  31 40 mph 987.9mb 42f 39f
3:04am  -   -  31 38 mph 984.8mb - 40f
2:04am  -   -  34 45 mph 981.9mb 41f 40f
12:04am 26.5ft 11s 27 36 mph 974.8mb 41f 46f
Sat 01/24 11:04pm 18.5ft 11s 22 27 mph 975.2mb 42f 47f
10:04pm 22.5ft 11s  -  mph - 42f -
8:04pm 11ft 8s  -  mph - 41f -
5:04pm  -   -  20 22 mph 986.4mb - 48f
4:04pm 4.5ft 5s 20 25 mph 991mb 42f 44f
3:04pm 3.5ft 4s 27 31 mph 994.8mb 41f 41f
2:04pm 4.5ft 6s 22 27 mph 998mb 41f 40f
1:04pm 4.5ft 8s 16 20 mph 1001.7mb 41f 40f
12:04pm 5ft 6s 9 11 mph 1004.7mb 42f 41f
11:04am 5.5ft 8s 7 9 mph 1008.1mb 42f 41f
10:04am 6ft 8s 9 11 mph 1008.9mb 42f 42f
9:04am 6ft 8s 7 9 mph 1010mb 42f 42f
8:04am 6.5ft 8s 7 9 mph 1009.7mb 42f 42f
7:04am 7ft 8s 9 11 mph 1010.2mb 42f 42f
6:04am 7ft 6s  -  mph - 42f -
5:04am 9ft 6s  -  mph - 42f -
4:04am 7ft 6s  -  mph - 42f -
2:04am 7.5ft 6s 22 25 mph 1013.6mb 42f 39f
1:04am  -   -  20 25 mph 1014.4mb - 38f
12:04am 5.5ft 6s 22 27 mph 1015.5mb 41f 37f
Fri 01/23 11:04pm 4.5ft 6s 20 27 mph 1015.9mb 42f 37f
10:04pm 6ft 11s 18 22 mph 1016.9mb 42f 36f
9:04pm 6ft 11s  -  mph - 42f -
8:04pm 7ft 11s 16 20 mph 1017.4mb 42f 34f
7:04pm 7ft 11s 13 20 mph 1017.6mb 42f 33f
6:04pm 8ft 11s 13 18 mph 1017.8mb 42f 33f